Time;durP1;ratioP1;P1;durP2;ratioP2;P2;SDS_P1;SDS_P2;PMS_P1;PMS_P2;Temp;Humidity;BMP_temperature;BMP_pressure;BME280_temperature;BME280_humidity;BME280_pressure;Samples;Min_cycle;Max_cycle;Signal;HPM_P1;HPM_P2
2020/12/10 00:00:06;;;;;;;39.30;19.40;;;;;;;;;;4919526;29;20534;-67
2020/12/10 00:02:32;;;;;;;42.80;20.40;;;;;;;;;;4928112;29;20051;-67
2020/12/10 00:04:58;;;;;;;41.13;19.88;;;;;;;;;;4904470;29;20052;-67
2020/12/10 00:07:24;;;;;;;35.63;17.98;;;;;;;;;;4919448;29;20403;-67
2020/12/10 00:09:51;;;;;;;38.05;18.05;;;;;;;;;;4920060;29;20052;-67
2020/12/10 00:12:17;;;;;;;43.17;20.05;;;;;;;;;;4919364;29;20411;-68
2020/12/10 00:14:43;;;;;;;39.88;18.52;;;;;;;;;;4920067;29;20056;-68
2020/12/10 00:17:10;;;;;;;41.15;17.77;;;;;;;;;;4918537;29;20086;-68
2020/12/10 00:19:36;;;;;;;33.47;17.10;;;;;;;;;;4919921;29;20060;-68
2020/12/10 00:22:02;;;;;;;38.40;18.70;;;;;;;;;;4919007;29;20052;-68
2020/12/10 00:24:29;;;;;;;33.80;17.38;;;;;;;;;;4919719;29;20055;-68
2020/12/10 00:26:55;;;;;;;33.60;17.45;;;;;;;;;;4919050;29;20054;-68
2020/12/10 00:29:21;;;;;;;35.05;18.15;;;;;;;;;;4919542;29;20059;-68
2020/12/10 00:31:47;;;;;;;37.22;18.83;;;;;;;;;;4919629;29;20055;-68
2020/12/10 00:34:13;;;;;;;36.42;18.40;;;;;;;;;;4934484;29;20058;-68
2020/12/10 00:36:39;;;;;;;34.40;18.73;;;;;;;;;;4918956;29;20062;-69
2020/12/10 00:39:06;;;;;;;33.70;17.63;;;;;;;;;;4903611;29;20062;-68
2020/12/10 00:41:32;;;;;;;32.85;18.77;;;;;;;;;;4919523;29;20040;-68
2020/12/10 00:43:58;;;;;;;37.72;19.60;;;;;;;;;;4919279;29;20067;-68
2020/12/10 00:46:24;;;;;;;36.65;18.10;;;;;;;;;;4918325;29;20505;-68
2020/12/10 00:48:50;;;;;;;34.55;17.33;;;;;;;;;;4919313;29;20455;-68
2020/12/10 00:51:16;;;;;;;39.08;19.10;;;;;;;;;;4919055;29;20050;-67
2020/12/10 00:53:43;;;;;;;39.60;20.38;;;;;;;;;;4919059;29;20048;-67
2020/12/10 00:56:09;;;;;;;40.20;19.08;;;;;;;;;;4918319;29;20517;-68
2020/12/10 00:58:35;;;;;;;39.50;19.58;;;;;;;;;;4918916;29;20610;-67
2020/12/10 01:01:01;;;;;;;36.13;17.65;;;;;;;;;;4918840;29;20059;-68
2020/12/10 01:03:27;;;;;;;37.17;18.27;;;;;;;;;;4935874;29;20043;-67
2020/12/10 01:05:54;;;;;;;39.10;18.17;;;;;;;;;;4917812;29;20115;-68
2020/12/10 01:08:20;;;;;;;40.47;18.80;;;;;;;;;;4918371;29;20059;-68
2020/12/10 01:10:46;;;;;;;40.75;20.17;;;;;;;;;;4918757;29;20059;-67
2020/12/10 01:13:12;;;;;;;37.42;19.40;;;;;;;;;;4918661;29;20055;-67
2020/12/10 01:15:38;;;;;;;34.13;18.25;;;;;;;;;;4917915;29;20489;-67
2020/12/10 01:18:05;;;;;;;37.80;19.42;;;;;;;;;;4918539;29;20052;-68
2020/12/10 01:20:31;;;;;;;37.95;18.27;;;;;;;;;;4918731;29;20047;-68
2020/12/10 01:22:58;;;;;;;38.47;19.23;;;;;;;;;;4933879;29;20495;-68
2020/12/10 01:25:24;;;;;;;37.15;18.95;;;;;;;;;;4917583;29;20070;-68
2020/12/10 01:27:50;;;;;;;34.78;18.40;;;;;;;;;;4918804;29;20058;-68
2020/12/10 01:30:16;;;;;;;38.92;18.75;;;;;;;;;;4918418;29;20059;-68
2020/12/10 01:32:42;;;;;;;36.90;17.30;;;;;;;;;;4935367;29;20062;-68
2020/12/10 01:35:09;;;;;;;38.70;19.20;;;;;;;;;;4917648;29;20059;-69
2020/12/10 01:37:35;;;;;;;40.30;19.88;;;;;;;;;;4918250;29;20490;-69
2020/12/10 01:40:03;;;;;;;37.05;18.30;;;;;;;;;;4918194;29;20047;-68
2020/12/10 01:42:29;;;;;;;42.60;19.00;;;;;;;;;;4918197;29;20497;-69
2020/12/10 01:44:56;;;;;;;41.92;18.63;;;;;;;;;;4918109;29;20135;-68
2020/12/10 01:47:24;;;;;;;39.50;19.70;;;;;;;;;;4917004;29;20185;-69
2020/12/10 01:49:50;;;;;;;39.70;18.58;;;;;;;;;;4902598;29;20060;-68
2020/12/10 01:52:16;;;;;;;36.15;17.40;;;;;;;;;;4918054;29;20052;-68
2020/12/10 01:54:43;;;;;;;40.78;19.17;;;;;;;;;;4917902;29;20043;-68
2020/12/10 01:57:09;;;;;;;40.33;18.98;;;;;;;;;;4901544;29;20055;-68
2020/12/10 01:59:35;;;;;;;38.40;18.65;;;;;;;;;;4902549;29;20063;-68
2020/12/10 02:02:01;;;;;;;44.63;20.13;;;;;;;;;;4902198;29;20063;-67
2020/12/10 02:04:33;;;;;;;45.45;19.98;;;;;;;;;;4917635;29;20063;-68
2020/12/10 02:07:00;;;;;;;41.80;20.20;;;;;;;;;;4917241;29;20055;-68
2020/12/10 02:09:27;;;;;;;42.63;19.70;;;;;;;;;;4917731;29;20501;-68
2020/12/10 02:11:53;;;;;;;42.15;20.00;;;;;;;;;;4918175;29;20047;-68
2020/12/10 02:14:21;;;;;;;42.00;19.38;;;;;;;;;;4916682;29;20492;-68
2020/12/10 02:16:53;;;;;;;43.83;18.58;;;;;;;;;;4932642;29;20118;-68
2020/12/10 02:19:19;;;;;;;47.90;21.45;;;;;;;;;;4917454;29;20225;-68
2020/12/10 02:21:45;;;;;;;49.33;21.25;;;;;;;;;;4917704;29;20055;-68
2020/12/10 02:24:16;;;;;;;44.22;19.38;;;;;;;;;;4917343;29;20047;-69
2020/12/10 02:26:42;;;;;;;44.83;20.45;;;;;;;;;;4917131;29;20056;-69
2020/12/10 02:29:09;;;;;;;41.63;20.33;;;;;;;;;;4917324;29;20521;-69
2020/12/10 02:31:35;;;;;;;46.63;19.58;;;;;;;;;;4917550;29;20475;-69
2020/12/10 02:34:06;;;;;;;43.60;19.27;;;;;;;;;;4917398;29;20072;-69
2020/12/10 02:36:33;;;;;;;42.10;20.23;;;;;;;;;;4932974;29;20059;-68
2020/12/10 02:39:01;;;;;;;46.83;20.83;;;;;;;;;;4932910;29;20052;-69
2020/12/10 02:41:27;;;;;;;42.78;18.83;;;;;;;;;;4933460;29;20062;-69
2020/12/10 02:43:54;;;;;;;40.58;18.73;;;;;;;;;;4917664;29;20098;-69
2020/12/10 02:46:20;;;;;;;40.90;18.85;;;;;;;;;;4916699;29;20055;-68
2020/12/10 02:48:46;;;;;;;41.92;20.63;;;;;;;;;;4917575;29;20051;-68
2020/12/10 02:51:13;;;;;;;38.50;18.60;;;;;;;;;;4917293;29;20075;-69
2020/12/10 02:53:39;;;;;;;43.55;18.30;;;;;;;;;;4934419;29;20054;-68
2020/12/10 02:56:13;;;;;;;43.80;19.67;;;;;;;;;;4916196;29;20048;-69
2020/12/10 02:58:39;;;;;;;41.00;19.27;;;;;;;;;;4933365;29;20141;-69
2020/12/10 03:01:06;;;;;;;45.00;21.10;;;;;;;;;;4917042;29;20494;-68
2020/12/10 03:03:33;;;;;;;44.22;19.52;;;;;;;;;;4933167;29;20052;-69
2020/12/10 03:05:59;;;;;;;42.60;19.45;;;;;;;;;;4932175;29;20060;-69
2020/12/10 03:08:26;;;;;;;46.78;21.00;;;;;;;;;;4916964;29;20059;-67
2020/12/10 03:10:57;;;;;;;46.08;20.67;;;;;;;;;;4916115;29;20052;-68
2020/12/10 03:13:27;;;;;;;46.42;19.73;;;;;;;;;;4933687;29;20051;-68
2020/12/10 03:15:54;;;;;;;39.50;18.92;;;;;;;;;;4914748;29;20040;-68
2020/12/10 03:21:52;;;;;;;41.65;19.00;;;;;;;;;;4979604;23;20113;-68
2020/12/10 03:24:18;;;;;;;42.70;20.15;;;;;;;;;;4969994;28;20055;-68
2020/12/10 03:26:44;;;;;;;39.80;19.85;;;;;;;;;;4969573;28;20051;-69
2020/12/10 03:29:11;;;;;;;47.08;19.95;;;;;;;;;;4973213;28;20407;-69
2020/12/10 03:31:37;;;;;;;42.53;20.25;;;;;;;;;;4974191;28;20054;-68
2020/12/10 03:34:06;;;;;;;44.22;20.00;;;;;;;;;;4973926;28;20513;-68
2020/12/10 03:36:55;;;;;;;42.35;18.60;;;;;;;;;;4974227;28;20051;-68
2020/12/10 03:39:23;;;;;;;45.40;19.85;;;;;;;;;;4974893;28;20059;-68
2020/12/10 03:41:50;;;;;;;42.63;19.02;;;;;;;;;;4974040;28;20101;-68
2020/12/10 03:44:17;;;;;;;42.50;20.45;;;;;;;;;;4974690;28;20494;-68
2020/12/10 03:46:43;;;;;;;45.13;20.27;;;;;;;;;;4974361;28;20058;-69
2020/12/10 03:49:10;;;;;;;39.97;18.90;;;;;;;;;;4974309;28;20057;-69
2020/12/10 03:51:36;;;;;;;34.15;17.63;;;;;;;;;;4974435;28;20046;-69
2020/12/10 03:54:03;;;;;;;42.88;20.08;;;;;;;;;;4975534;28;20051;-69
2020/12/10 03:56:31;;;;;;;39.92;18.88;;;;;;;;;;4974311;28;20057;-68
2020/12/10 03:58:58;;;;;;;41.42;20.10;;;;;;;;;;4974732;28;20134;-68
2020/12/10 04:01:25;;;;;;;40.28;19.20;;;;;;;;;;4974199;28;20063;-69
2020/12/10 04:03:52;;;;;;;39.75;19.40;;;;;;;;;;4974259;28;20097;-69
2020/12/10 04:06:19;;;;;;;42.83;19.65;;;;;;;;;;4974980;28;20086;-69
2020/12/10 04:08:45;;;;;;;41.00;18.20;;;;;;;;;;4974042;28;20485;-68
2020/12/10 04:11:11;;;;;;;39.25;19.05;;;;;;;;;;4974154;28;20054;-68
2020/12/10 04:13:37;;;;;;;36.53;17.88;;;;;;;;;;4973904;28;20058;-68
2020/12/10 04:16:04;;;;;;;41.25;18.38;;;;;;;;;;4973412;28;20062;-68
2020/12/10 04:18:31;;;;;;;41.10;19.33;;;;;;;;;;4974320;28;20054;-68
2020/12/10 04:20:57;;;;;;;36.35;18.67;;;;;;;;;;4974161;28;20046;-68
2020/12/10 04:23:23;;;;;;;35.63;17.83;;;;;;;;;;4981306;28;20054;-67
2020/12/10 04:25:53;;;;;;;37.70;19.20;;;;;;;;;;4986929;28;20055;-67
2020/12/10 04:28:20;;;;;;;37.25;18.58;;;;;;;;;;4991441;28;20069;-68
2020/12/10 04:30:46;;;;;;;41.25;19.13;;;;;;;;;;4989386;28;20057;-68
2020/12/10 04:33:13;;;;;;;43.75;20.40;;;;;;;;;;4974200;28;20051;-68
2020/12/10 04:35:40;;;;;;;36.97;17.05;;;;;;;;;;4973376;28;20053;-69
2020/12/10 04:38:07;;;;;;;40.88;18.90;;;;;;;;;;4973673;28;20079;-69
2020/12/10 04:40:34;;;;;;;43.75;19.02;;;;;;;;;;4973972;28;20047;-69
2020/12/10 04:43:02;;;;;;;39.42;18.85;;;;;;;;;;4973429;28;20051;-69
2020/12/10 04:45:28;;;;;;;46.65;19.98;;;;;;;;;;4973050;28;20051;-69
2020/12/10 04:47:55;;;;;;;40.75;19.85;;;;;;;;;;4973614;28;20051;-69
2020/12/10 04:50:25;;;;;;;39.28;19.13;;;;;;;;;;4973360;28;20059;-69
2020/12/10 04:52:52;;;;;;;41.70;19.13;;;;;;;;;;4973232;28;20047;-68
2020/12/10 04:55:19;;;;;;;43.72;19.50;;;;;;;;;;4972495;28;20519;-68
2020/12/10 04:57:45;;;;;;;46.17;20.45;;;;;;;;;;4973282;28;20613;-69
2020/12/10 05:00:14;;;;;;;42.40;20.33;;;;;;;;;;4972827;28;20065;-69
2020/12/10 05:02:40;;;;;;;48.03;21.70;;;;;;;;;;4973598;28;20051;-69
2020/12/10 05:05:26;;;;;;;47.70;20.90;;;;;;;;;;4972661;28;20058;-68
2020/12/10 05:07:54;;;;;;;46.05;20.52;;;;;;;;;;4972890;28;20051;-69
2020/12/10 05:10:20;;;;;;;55.58;24.15;;;;;;;;;;4972578;28;20065;-68
2020/12/10 05:12:47;;;;;;;45.55;20.95;;;;;;;;;;4972976;28;20061;-69
2020/12/10 05:15:17;;;;;;;50.20;21.15;;;;;;;;;;4972418;28;20370;-68
2020/12/10 05:17:43;;;;;;;47.25;21.83;;;;;;;;;;4972934;28;20055;-68
2020/12/10 05:20:10;;;;;;;51.08;22.50;;;;;;;;;;4972435;28;20062;-68
2020/12/10 05:22:44;;;;;;;52.90;23.38;;;;;;;;;;4972625;28;20050;-68
2020/12/10 05:25:10;;;;;;;53.17;23.65;;;;;;;;;;4972271;28;20054;-68
2020/12/10 05:27:36;;;;;;;51.92;23.10;;;;;;;;;;4972800;28;20058;-68
2020/12/10 05:30:03;;;;;;;56.15;23.48;;;;;;;;;;4972687;28;20054;-68
2020/12/10 05:32:29;;;;;;;54.42;23.15;;;;;;;;;;4972411;28;20433;-68
2020/12/10 05:34:56;;;;;;;54.47;24.15;;;;;;;;;;4973771;28;20055;-68
2020/12/10 05:37:29;;;;;;;51.55;21.45;;;;;;;;;;4971922;28;20525;-68
2020/12/10 05:39:59;;;;;;;;;;;;;;;;;;4972894;28;20054;-69
2020/12/10 05:42:34;;;;;;;46.00;21.00;;;;;;;;;;4970294;28;19930;-69
2020/12/10 05:45:03;;;;;;;45.40;22.23;;;;;;;;;;4952986;29;20051;-69
2020/12/10 05:47:29;;;;;;;41.78;21.92;;;;;;;;;;4921486;29;20055;-68
2020/12/10 05:49:57;;;;;;;42.85;19.95;;;;;;;;;;4953164;29;20114;-68
2020/12/10 05:52:24;;;;;;;50.28;21.25;;;;;;;;;;4969708;28;20050;-69
2020/12/10 05:54:56;;;;;;;46.33;20.67;;;;;;;;;;4971994;28;20047;-68
2020/12/10 05:57:23;;;;;;;44.25;20.30;;;;;;;;;;4971868;28;20769;-68
2020/12/10 05:59:49;;;;;;;43.03;20.38;;;;;;;;;;4972312;28;20058;-68
2020/12/10 06:02:15;;;;;;;47.67;22.58;;;;;;;;;;4972168;28;20422;-69
2020/12/10 06:04:41;;;;;;;42.28;20.77;;;;;;;;;;4940363;28;20050;-69
2020/12/10 06:07:10;;;;;;;45.67;21.52;;;;;;;;;;4971264;28;20051;-69
2020/12/10 06:09:36;;;;;;;48.70;21.33;;;;;;;;;;4972235;28;20051;-68
2020/12/10 06:12:07;;;;;;;46.65;21.48;;;;;;;;;;4955841;28;20050;-69
2020/12/10 06:14:55;;;;;;;45.35;21.98;;;;;;;;;;4971958;28;20050;-69
2020/12/10 06:17:22;;;;;;;40.88;19.85;;;;;;;;;;4971487;28;20063;-69
2020/12/10 06:19:48;;;;;;;43.60;21.05;;;;;;;;;;4972316;28;20077;-69
2020/12/10 06:22:37;;;;;;;44.08;20.08;;;;;;;;;;4971332;28;20058;-68
2020/12/10 06:25:04;;;;;;;44.95;20.25;;;;;;;;;;4971404;28;20414;-69
2020/12/10 06:27:34;;;;;;;36.60;18.40;;;;;;;;;;4972587;28;20489;-69
2020/12/10 06:30:16;;;;;;;41.03;17.65;;;;;;;;;;4971588;28;20047;-69
2020/12/10 06:32:47;;;;;;;39.90;19.27;;;;;;;;;;4972113;28;20054;-68
2020/12/10 06:35:32;;;;;;;38.17;18.48;;;;;;;;;;4971070;28;20082;-69
2020/12/10 06:37:59;;;;;;;36.15;18.38;;;;;;;;;;4971732;28;20485;-69
2020/12/10 06:40:32;;;;;;;35.08;18.17;;;;;;;;;;4971133;28;20047;-69
2020/12/10 06:42:59;;;;;;;34.60;17.92;;;;;;;;;;4971645;28;20054;-69
2020/12/10 06:45:32;;;;;;;38.65;20.00;;;;;;;;;;4971282;28;20046;-69
2020/12/10 06:47:59;;;;;;;;;;;;;;;;;;4972174;28;20058;-69
2020/12/10 06:50:28;;;;;;;39.38;18.98;;;;;;;;;;4983385;28;19926;-69
2020/12/10 06:53:11;;;;;;;41.72;20.17;;;;;;;;;;4952385;29;20051;-69
2020/12/10 06:55:56;;;;;;;;;;;;;;;;;;4952351;29;20478;-69
2020/12/10 06:58:34;;;;;;;37.67;18.83;;;;;;;;;;4952092;29;19930;-68
2020/12/10 07:01:24;;;;;;;38.53;18.60;;;;;;;;;;4944981;28;20046;-69
2020/12/10 07:03:55;;;;;;;42.28;18.42;;;;;;;;;;4972808;28;20050;-68
2020/12/10 07:06:22;;;;;;;36.22;19.67;;;;;;;;;;4958949;28;20050;-69
2020/12/10 07:09:08;;;;;;;41.33;21.10;;;;;;;;;;4975126;28;20506;-68
2020/12/10 07:11:38;;;;;;;39.47;19.13;;;;;;;;;;4975126;28;20061;-69
2020/12/10 07:14:28;;;;;;;34.50;18.88;;;;;;;;;;4975056;28;20053;-69
2020/12/10 07:16:56;;;;;;;40.60;20.40;;;;;;;;;;4975130;28;20152;-69
2020/12/10 07:19:23;;;;;;;37.05;18.30;;;;;;;;;;4955657;28;20051;-69
2020/12/10 07:21:49;;;;;;;35.67;19.38;;;;;;;;;;4971672;28;20055;-69
2020/12/10 07:24:15;;;;;;;34.38;17.52;;;;;;;;;;4974643;28;20069;-69
2020/12/10 07:26:43;;;;;;;33.47;17.58;;;;;;;;;;4974404;28;20051;-69
2020/12/10 07:29:09;;;;;;;33.65;16.20;;;;;;;;;;4974582;28;20097;-69
2020/12/10 07:31:36;;;;;;;34.72;16.50;;;;;;;;;;4974139;28;20557;-69
2020/12/10 07:34:03;;;;;;;33.47;17.20;;;;;;;;;;4974064;28;20051;-69
2020/12/10 07:36:31;;;;;;;37.55;19.42;;;;;;;;;;4971212;28;20045;-69
2020/12/10 07:38:58;;;;;;;40.53;18.60;;;;;;;;;;4973252;28;20105;-69
2020/12/10 07:41:24;;;;;;;35.13;17.48;;;;;;;;;;4974492;28;20144;-69
2020/12/10 07:43:53;;;;;;;37.05;18.65;;;;;;;;;;4975912;28;20055;-69
2020/12/10 07:46:20;;;;;;;40.28;19.35;;;;;;;;;;4975230;28;20054;-69
2020/12/10 07:48:48;;;;;;;33.05;18.08;;;;;;;;;;4973701;28;20051;-66
2020/12/10 07:51:21;;;;;;;33.78;16.67;;;;;;;;;;4972109;28;20126;-65
2020/12/10 07:53:48;;;;;;;30.60;17.40;;;;;;;;;;4972460;28;20055;-66
2020/12/10 07:56:21;;;;;;;33.90;16.85;;;;;;;;;;4971278;28;20058;-67
2020/12/10 07:59:01;;;;;;;29.85;16.15;;;;;;;;;;4943644;29;20490;-66
2020/12/10 08:01:52;;;;;;;32.00;16.95;;;;;;;;;;4972736;28;20058;-66
2020/12/10 08:04:19;;;;;;;27.13;15.23;;;;;;;;;;4962838;28;20057;-66
2020/12/10 08:06:50;;;;;;;30.90;15.60;;;;;;;;;;4952285;29;20505;-65
2020/12/10 08:09:19;;;;;;;30.75;16.63;;;;;;;;;;4953933;28;20382;-67
2020/12/10 08:11:49;;;;;;;36.10;16.75;;;;;;;;;;4952937;29;20052;-67
2020/12/10 08:14:26;;;;;;;32.53;15.98;;;;;;;;;;4951811;28;20114;-66
2020/12/10 08:16:53;;;;;;;30.67;14.85;;;;;;;;;;4952461;29;20047;-66
2020/12/10 08:19:28;;;;;;;32.42;17.35;;;;;;;;;;4952676;29;20059;-68
2020/12/10 08:21:54;;;;;;;38.42;18.15;;;;;;;;;;4952580;29;20061;-68
2020/12/10 08:24:41;;;;;;;35.05;17.40;;;;;;;;;;4952460;29;20561;-66
2020/12/10 08:27:09;;;;;;;37.17;18.55;;;;;;;;;;4951843;29;20059;-67
2020/12/10 08:29:36;;;;;;;38.45;18.30;;;;;;;;;;4952429;29;20132;-68
2020/12/10 08:32:10;;;;;;;39.72;18.38;;;;;;;;;;4952303;29;20055;-69
2020/12/10 08:34:36;;;;;;;36.67;18.60;;;;;;;;;;4952527;29;20058;-67
2020/12/10 08:37:07;;;;;;;31.00;16.23;;;;;;;;;;4951657;29;20051;-69
2020/12/10 08:39:34;;;;;;;34.47;17.45;;;;;;;;;;4953859;28;20497;-66
2020/12/10 08:42:01;;;;;;;34.22;17.70;;;;;;;;;;4951457;29;20055;-67
2020/12/10 08:44:46;;;;;;;35.38;17.85;;;;;;;;;;4953261;28;20055;-68
2020/12/10 08:47:24;;;;;;;34.45;17.52;;;;;;;;;;4949494;28;20273;-67
2020/12/10 08:53:02;;;;;;;36.78;18.20;;;;;;;;;;4961470;28;20077;-67
2020/12/10 08:55:36;;;;;;;41.67;19.48;;;;;;;;;;4957781;28;20418;-67
2020/12/10 08:58:02;;;;;;;39.58;18.90;;;;;;;;;;4955523;28;20047;-67
2020/12/10 09:00:29;;;;;;;38.50;18.75;;;;;;;;;;4957190;28;20429;-67
2020/12/10 09:02:55;;;;;;;37.53;18.60;;;;;;;;;;4957269;28;20481;-69
2020/12/10 09:05:21;;;;;;;37.05;17.48;;;;;;;;;;4959187;28;20051;-67
2020/12/10 09:07:48;;;;;;;34.15;16.75;;;;;;;;;;4958441;28;20070;-68
2020/12/10 09:10:15;;;;;;;34.75;17.55;;;;;;;;;;4959040;28;20047;-69
2020/12/10 09:12:41;;;;;;;33.45;19.05;;;;;;;;;;4946247;28;20052;-66
2020/12/10 09:15:07;;;;;;;34.90;17.83;;;;;;;;;;4959448;28;20442;-66
2020/12/10 09:17:33;;;;;;;38.00;19.38;;;;;;;;;;4958556;28;20058;-67
2020/12/10 09:20:01;;;;;;;33.63;18.58;;;;;;;;;;4961321;28;20142;-66
2020/12/10 09:25:27;;;;;;;34.08;17.85;;;;;;;;;;4968673;23;20498;-67
2020/12/10 09:27:53;;;;;;;33.20;17.13;;;;;;;;;;4964660;28;20494;-68
2020/12/10 09:30:19;;;;;;;39.50;18.90;;;;;;;;;;4963560;28;20595;-67
2020/12/10 09:32:46;;;;;;;32.35;16.67;;;;;;;;;;4966085;28;20060;-67
2020/12/10 09:35:12;;;;;;;36.47;17.13;;;;;;;;;;4960853;28;20047;-68
2020/12/10 09:37:40;;;;;;;37.85;17.88;;;;;;;;;;4962687;28;20090;-67
2020/12/10 09:40:08;;;;;;;33.30;16.63;;;;;;;;;;4962158;28;20339;-66
2020/12/10 09:42:37;;;;;;;34.63;18.02;;;;;;;;;;4965034;28;20504;-67
2020/12/10 09:45:03;;;;;;;36.90;17.10;;;;;;;;;;4961335;28;20091;-68
2020/12/10 09:47:29;;;;;;;35.15;17.35;;;;;;;;;;4964271;28;20084;-67
2020/12/10 09:49:55;;;;;;;29.55;16.05;;;;;;;;;;4964116;28;20070;-67
2020/12/10 09:52:23;;;;;;;30.70;15.77;;;;;;;;;;4965013;28;20074;-67
2020/12/10 09:55:05;;;;;;;33.38;17.15;;;;;;;;;;4961411;28;20086;-69
2020/12/10 09:57:32;;;;;;;32.63;15.90;;;;;;;;;;4961330;28;20490;-68
2020/12/10 10:00:04;;;;;;;30.90;16.33;;;;;;;;;;4965204;28;20762;-68
2020/12/10 10:02:30;;;;;;;31.60;16.73;;;;;;;;;;4962197;28;20043;-69
2020/12/10 10:04:56;;;;;;;33.15;17.50;;;;;;;;;;4961432;28;20062;-67
2020/12/10 10:07:22;;;;;;;31.73;16.77;;;;;;;;;;4957485;28;20438;-68
2020/12/10 10:09:49;;;;;;;32.35;17.45;;;;;;;;;;4962270;28;20405;-69
2020/12/10 10:12:16;;;;;;;30.73;15.98;;;;;;;;;;4963845;28;20502;-67
2020/12/10 10:14:42;;;;;;;28.23;14.93;;;;;;;;;;4963861;28;20047;-67
2020/12/10 10:17:09;;;;;;;26.85;14.00;;;;;;;;;;4962451;28;20078;-67
2020/12/10 10:19:36;;;;;;;29.50;16.02;;;;;;;;;;4960357;28;20158;-68
2020/12/10 10:22:02;;;;;;;32.25;16.30;;;;;;;;;;4964725;28;20452;-67
2020/12/10 10:24:30;;;;;;;30.48;15.43;;;;;;;;;;4960893;28;20508;-68
2020/12/10 10:26:56;;;;;;;29.77;16.48;;;;;;;;;;4963800;28;20101;-68
2020/12/10 10:29:22;;;;;;;28.38;15.48;;;;;;;;;;4963074;28;20054;-68
2020/12/10 10:31:50;;;;;;;25.20;13.40;;;;;;;;;;4958242;28;20564;-68
2020/12/10 10:34:16;;;;;;;21.40;11.70;;;;;;;;;;4960211;28;20054;-67
2020/12/10 10:36:43;;;;;;;18.92;10.80;;;;;;;;;;4961167;28;20081;-67
2020/12/10 10:39:10;;;;;;;21.27;10.88;;;;;;;;;;4958792;28;20129;-68
2020/12/10 10:41:45;;;;;;;21.05;11.13;;;;;;;;;;4964607;28;20079;-68
2020/12/10 10:44:11;;;;;;;17.80;10.02;;;;;;;;;;4962021;28;20043;-67
2020/12/10 10:46:37;;;;;;;19.60;11.40;;;;;;;;;;4962284;28;20141;-67
2020/12/10 10:49:04;;;;;;;17.42;9.45;;;;;;;;;;4961646;28;20048;-68
2020/12/10 10:51:30;;;;;;;16.23;9.20;;;;;;;;;;4963225;28;20043;-68
2020/12/10 10:53:56;;;;;;;15.65;9.43;;;;;;;;;;4953102;28;20094;-67
2020/12/10 10:56:23;;;;;;;15.10;8.60;;;;;;;;;;4952480;29;20047;-67
2020/12/10 10:58:50;;;;;;;13.25;8.57;;;;;;;;;;4953110;28;20093;-66
2020/12/10 11:01:16;;;;;;;13.57;8.00;;;;;;;;;;4949463;28;20051;-64
2020/12/10 11:03:42;;;;;;;12.25;8.05;;;;;;;;;;4951331;28;20090;-66
2020/12/10 11:06:13;;;;;;;14.98;8.10;;;;;;;;;;4950490;29;20071;-65
2020/12/10 11:08:39;;;;;;;13.98;8.18;;;;;;;;;;4949909;29;20047;-65
2020/12/10 11:11:05;;;;;;;13.32;7.75;;;;;;;;;;4950981;28;20561;-66
2020/12/10 11:13:31;;;;;;;13.77;7.75;;;;;;;;;;4950763;28;20106;-67
2020/12/10 11:15:57;;;;;;;15.20;8.05;;;;;;;;;;4950545;28;20116;-69
2020/12/10 11:18:23;;;;;;;15.30;7.65;;;;;;;;;;4951201;28;20047;-66
2020/12/10 11:20:49;;;;;;;12.65;7.43;;;;;;;;;;4944918;28;20476;-67
2020/12/10 11:23:16;;;;;;;10.77;6.70;;;;;;;;;;4942476;29;20494;-68
2020/12/10 11:25:42;;;;;;;12.30;7.20;;;;;;;;;;4931727;28;20438;-64
2020/12/10 11:28:08;;;;;;;15.30;8.77;;;;;;;;;;4936899;29;20043;-67
2020/12/10 11:30:34;;;;;;;12.82;7.68;;;;;;;;;;4950428;29;20474;-67
2020/12/10 11:33:00;;;;;;;13.73;7.32;;;;;;;;;;4950722;28;20054;-69
2020/12/10 11:35:26;;;;;;;10.10;6.68;;;;;;;;;;4950349;28;20114;-68
2020/12/10 11:37:55;;;;;;;12.85;8.02;;;;;;;;;;4951338;29;20130;-67
2020/12/10 11:40:23;;;;;;;12.80;7.20;;;;;;;;;;4950564;28;20051;-65
2020/12/10 11:42:50;;;;;;;11.82;7.22;;;;;;;;;;4957504;28;20493;-63
2020/12/10 11:45:17;;;;;;;11.40;7.40;;;;;;;;;;4951340;28;20568;-66
2020/12/10 11:47:46;;;;;;;11.73;6.72;;;;;;;;;;4950842;29;20090;-64
2020/12/10 11:50:18;;;;;;;12.23;7.18;;;;;;;;;;4952771;28;20063;-65
2020/12/10 11:52:48;;;;;;;10.65;6.30;;;;;;;;;;4944774;28;20048;-64
2020/12/10 11:55:15;;;;;;;12.25;7.30;;;;;;;;;;4934681;29;20048;-66
2020/12/10 11:57:41;;;;;;;12.23;7.30;;;;;;;;;;4935112;29;20052;-64
2020/12/10 12:00:08;;;;;;;15.18;9.38;;;;;;;;;;4934816;29;20092;-64
2020/12/10 12:02:34;;;;;;;11.68;7.65;;;;;;;;;;4942186;29;20047;-68
2020/12/10 12:05:02;;;;;;;12.93;7.90;;;;;;;;;;4941430;28;20073;-63
2020/12/10 12:07:28;;;;;;;14.32;8.60;;;;;;;;;;4954514;28;20087;-67
2020/12/10 12:09:54;;;;;;;13.80;8.68;;;;;;;;;;4964136;28;20059;-64
2020/12/10 12:12:20;;;;;;;13.07;8.10;;;;;;;;;;4960149;28;20043;-64
2020/12/10 12:14:46;;;;;;;14.88;8.63;;;;;;;;;;4964460;28;20047;-66
2020/12/10 12:17:12;;;;;;;14.35;8.48;;;;;;;;;;4963378;28;20158;-63
2020/12/10 12:19:38;;;;;;;15.05;8.85;;;;;;;;;;4961169;28;20157;-63
2020/12/10 12:22:04;;;;;;;13.75;8.30;;;;;;;;;;4963212;28;20073;-67
2020/12/10 12:24:30;;;;;;;13.73;8.20;;;;;;;;;;4962469;28;20106;-63
2020/12/10 12:26:57;;;;;;;15.27;10.23;;;;;;;;;;4962527;28;20122;-63
2020/12/10 12:29:23;;;;;;;13.50;7.93;;;;;;;;;;4964437;28;20085;-65
2020/12/10 12:31:49;;;;;;;13.57;8.80;;;;;;;;;;4962371;28;20572;-66
2020/12/10 12:34:16;;;;;;;13.50;8.90;;;;;;;;;;4964795;28;20505;-64
2020/12/10 12:36:44;;;;;;;13.35;8.40;;;;;;;;;;4962487;28;20038;-66
2020/12/10 12:39:13;;;;;;;13.45;8.43;;;;;;;;;;4957748;28;20497;-65
2020/12/10 12:41:52;;;;;;;15.35;9.15;;;;;;;;;;4960968;28;20052;-63
2020/12/10 12:44:18;;;;;;;13.45;8.38;;;;;;;;;;4962242;28;20055;-62
2020/12/10 12:46:48;;;;;;;13.15;7.80;;;;;;;;;;4961951;28;20051;-62
2020/12/10 12:49:14;;;;;;;14.60;8.85;;;;;;;;;;4959177;28;20102;-63
2020/12/10 12:51:41;;;;;;;12.95;8.20;;;;;;;;;;4965116;28;20534;-63
2020/12/10 12:54:07;;;;;;;13.80;9.07;;;;;;;;;;4959648;28;20054;-64
2020/12/10 12:56:33;;;;;;;13.90;8.70;;;;;;;;;;4963715;28;20038;-63
2020/12/10 12:58:59;;;;;;;12.15;7.00;;;;;;;;;;4961946;28;20046;-67
2020/12/10 13:01:27;;;;;;;13.75;8.55;;;;;;;;;;4961510;28;20130;-66
2020/12/10 13:03:54;;;;;;;16.40;9.38;;;;;;;;;;4963249;28;20398;-66
2020/12/10 13:06:21;;;;;;;13.48;8.85;;;;;;;;;;4962723;28;20409;-66
2020/12/10 13:08:48;;;;;;;14.32;8.00;;;;;;;;;;4960915;28;20054;-64
2020/12/10 13:11:18;;;;;;;21.95;9.95;;;;;;;;;;4960486;28;20066;-65
2020/12/10 13:13:44;;;;;;;13.77;8.55;;;;;;;;;;4961542;28;20418;-64
2020/12/10 13:16:10;;;;;;;14.65;8.70;;;;;;;;;;4962062;28;20431;-65
2020/12/10 13:18:37;;;;;;;15.07;8.63;;;;;;;;;;4963289;28;20054;-67
2020/12/10 13:21:03;;;;;;;13.15;8.48;;;;;;;;;;4957838;28;20074;-65
2020/12/10 13:23:29;;;;;;;12.48;7.43;;;;;;;;;;4962985;28;20051;-63
2020/12/10 13:25:55;;;;;;;12.60;8.27;;;;;;;;;;4962069;28;20043;-64
2020/12/10 13:28:21;;;;;;;13.93;8.07;;;;;;;;;;4963335;28;20050;-63
2020/12/10 13:30:47;;;;;;;15.93;9.30;;;;;;;;;;4961174;28;20353;-63
2020/12/10 13:33:15;;;;;;;12.13;8.05;;;;;;;;;;4963462;28;20050;-66
2020/12/10 13:35:44;;;;;;;15.30;9.35;;;;;;;;;;4963071;28;20050;-66
2020/12/10 13:38:11;;;;;;;15.30;8.02;;;;;;;;;;4956815;28;20533;-65
2020/12/10 13:40:37;;;;;;;14.18;8.68;;;;;;;;;;4961756;28;20074;-64
2020/12/10 13:43:04;;;;;;;13.77;8.15;;;;;;;;;;4963277;28;20552;-63
2020/12/10 13:45:30;;;;;;;14.88;8.73;;;;;;;;;;4958326;28;20102;-62
2020/12/10 13:47:56;;;;;;;13.63;9.43;;;;;;;;;;4963613;28;20062;-63
2020/12/10 13:50:22;;;;;;;12.63;7.93;;;;;;;;;;4960378;28;20087;-63
2020/12/10 13:52:48;;;;;;;15.85;9.15;;;;;;;;;;4960254;28;20109;-63
2020/12/10 13:55:17;;;;;;;14.52;8.65;;;;;;;;;;4963009;28;20071;-63
2020/12/10 13:57:45;;;;;;;17.23;10.30;;;;;;;;;;4952798;28;20137;-62
2020/12/10 14:00:12;;;;;;;16.02;9.80;;;;;;;;;;4957484;28;20408;-64
2020/12/10 14:02:38;;;;;;;12.82;8.18;;;;;;;;;;4959240;28;20090;-63
2020/12/10 14:05:05;;;;;;;16.48;9.50;;;;;;;;;;4961776;28;21050;-63
2020/12/10 14:07:40;;;;;;;16.52;8.90;;;;;;;;;;4962368;28;20047;-63
2020/12/10 14:10:06;;;;;;;16.52;9.02;;;;;;;;;;4964288;28;20051;-62
2020/12/10 14:12:34;;;;;;;17.75;9.75;;;;;;;;;;4959713;28;20109;-62
2020/12/10 14:15:00;;;;;;;19.27;9.90;;;;;;;;;;4964312;28;20050;-63
2020/12/10 14:17:26;;;;;;;14.65;8.90;;;;;;;;;;4955843;28;20135;-63
2020/12/10 14:19:53;;;;;;;14.80;9.13;;;;;;;;;;4964367;28;20047;-62
2020/12/10 14:22:19;;;;;;;15.20;9.15;;;;;;;;;;4934853;28;20055;-62
2020/12/10 14:24:45;;;;;;;16.92;9.55;;;;;;;;;;4962042;28;20093;-62
2020/12/10 14:27:14;;;;;;;17.55;9.82;;;;;;;;;;4962387;28;20039;-62
2020/12/10 14:29:40;;;;;;;17.58;9.93;;;;;;;;;;4959452;28;20082;-62
2020/12/10 14:32:06;;;;;;;16.77;8.77;;;;;;;;;;4961210;28;20137;-63
2020/12/10 14:34:32;;;;;;;17.13;9.90;;;;;;;;;;4959238;28;20106;-62